createdAt,value
2018-05-03T00:00:05.197Z,4.50
2018-05-03T00:02:34.361Z,5.60
2018-05-03T00:05:04.427Z,6.23
2018-05-03T00:07:33.622Z,5.20
2018-05-03T00:10:02.764Z,5.70
2018-05-03T00:12:31.921Z,4.80
2018-05-03T00:15:01.829Z,5.20
2018-05-03T00:17:31.739Z,5.00
2018-05-03T00:20:00.900Z,4.60
2018-05-03T00:22:30.053Z,5.53
2018-05-03T00:25:00.893Z,4.53
2018-05-03T00:27:30.025Z,4.50
2018-05-03T00:30:01.126Z,5.07
2018-05-03T00:32:30.267Z,5.50
2018-05-03T00:35:00.170Z,5.13
2018-05-03T00:37:29.473Z,4.90
2018-05-03T00:39:58.598Z,4.80
2018-05-03T00:42:27.776Z,4.63
2018-05-03T00:44:58.018Z,4.70
2018-05-03T00:47:27.194Z,4.73
2018-05-03T00:49:56.326Z,4.93
2018-05-03T00:52:25.541Z,5.00
2018-05-03T00:54:55.428Z,4.40
2018-05-03T00:57:24.605Z,4.80
2018-05-03T00:59:53.742Z,4.90
2018-05-03T01:02:23.681Z,4.53
2018-05-03T01:05:01.765Z,4.60
2018-05-03T01:07:38.484Z,6.00
2018-05-03T01:10:11.074Z,4.83
2018-05-03T01:12:44.074Z,4.70
2018-05-03T01:15:18.492Z,5.23
2018-05-03T01:17:53.153Z,5.40
2018-05-03T01:20:26.947Z,4.80
2018-05-03T01:22:58.677Z,5.23
2018-05-03T01:25:32.270Z,5.13
2018-05-03T01:28:05.080Z,4.90
2018-05-03T01:30:35.755Z,4.83
2018-05-03T01:33:05.662Z,5.13
2018-05-03T01:35:53.124Z,4.33
2018-05-03T01:38:22.400Z,5.00
2018-05-03T01:40:52.328Z,4.20
2018-05-03T01:43:21.524Z,5.03
2018-05-03T01:45:51.449Z,5.17
2018-05-03T01:48:20.829Z,5.07
2018-05-03T01:50:50.726Z,5.00
2018-05-03T01:53:19.904Z,4.40
2018-05-03T01:55:49.084Z,5.00
2018-05-03T01:58:18.984Z,4.50
2018-05-03T02:00:48.157Z,5.37
2018-05-03T02:03:17.290Z,4.80
2018-05-03T02:05:47.245Z,4.60
2018-05-03T02:08:16.605Z,5.70
2018-05-03T02:10:46.525Z,5.63
2018-05-03T02:13:16.315Z,4.83
2018-05-03T02:15:48.013Z,5.37
2018-05-03T02:18:17.151Z,4.97
2018-05-03T02:20:47.331Z,4.60
2018-05-03T02:23:16.466Z,5.03
2018-05-03T02:25:45.659Z,5.27
2018-05-03T02:28:14.813Z,5.43
2018-05-03T02:30:44.063Z,4.57
2018-05-03T02:33:15.235Z,5.60
2018-05-03T02:35:45.134Z,5.43
2018-05-03T02:38:14.270Z,5.50
2018-05-03T02:40:43.403Z,5.50
2018-05-03T02:43:12.553Z,5.17
2018-05-03T02:45:41.725Z,5.00
2018-05-03T02:48:10.885Z,4.93
2018-05-03T02:50:40.037Z,5.10
2018-05-03T02:53:09.965Z,5.57
2018-05-03T02:55:39.105Z,5.20
2018-05-03T02:58:28.206Z,5.10
2018-05-03T03:01:23.755Z,5.10
2018-05-03T03:04:18.476Z,5.33
2018-05-03T03:11:02.679Z,5.67
2018-05-03T03:17:19.693Z,5.40
2018-05-03T03:20:12.983Z,6.43
2018-05-03T03:23:07.227Z,5.60
2018-05-03T03:29:32.977Z,5.63
2018-05-03T03:32:20.384Z,5.00
2018-05-03T03:35:06.666Z,5.70
2018-05-03T03:37:54.344Z,6.40
2018-05-03T03:40:42.278Z,5.67
2018-05-03T03:43:29.043Z,5.30
2018-05-03T03:45:59.029Z,5.50
2018-05-03T03:48:29.165Z,5.17
2018-05-03T03:50:59.087Z,5.10
2018-05-03T03:53:28.986Z,4.70
2018-05-03T03:55:58.580Z,5.20
2018-05-03T03:58:29.231Z,5.90
2018-05-03T04:00:59.147Z,5.90
2018-05-03T04:03:29.322Z,5.90
2018-05-03T04:05:58.467Z,5.90
2018-05-03T04:08:28.466Z,5.93
2018-05-03T04:10:57.549Z,5.97
2018-05-03T04:13:26.749Z,6.57
2018-05-03T04:15:55.898Z,6.63
2018-05-03T04:18:42.724Z,6.50
2018-05-03T04:45:28.296Z,5.90
2018-05-03T04:47:58.273Z,5.97
2018-05-03T04:50:28.238Z,5.80
2018-05-03T04:52:58.598Z,5.97
2018-05-03T04:55:27.746Z,6.43
2018-05-03T04:57:56.921Z,5.90
2018-05-03T05:00:26.868Z,7.23
2018-05-03T05:02:56.032Z,5.87
2018-05-03T05:05:26.562Z,5.27
2018-05-03T05:07:55.735Z,6.80
2018-05-03T05:10:25.067Z,6.60
2018-05-03T05:12:54.930Z,7.07
2018-05-03T05:15:24.866Z,6.20
2018-05-03T05:17:54.164Z,6.90
2018-05-03T05:20:23.388Z,5.93
2018-05-03T05:22:52.555Z,6.83
2018-05-03T05:25:22.659Z,7.13
2018-05-03T05:27:52.574Z,7.87
2018-05-03T05:30:21.801Z,6.83
2018-05-03T05:32:51.020Z,6.57
2018-05-03T05:35:20.176Z,7.13
2018-05-03T05:37:49.350Z,6.97
2018-05-03T05:40:19.296Z,7.23
2018-05-03T05:42:48.465Z,7.43
2018-05-03T05:45:18.372Z,7.40
2018-05-03T05:47:48.337Z,7.10
2018-05-03T05:50:17.487Z,7.10
2018-05-03T05:52:47.412Z,7.43
2018-05-03T05:55:17.307Z,8.57
2018-05-03T05:57:47.266Z,7.70
2018-05-03T06:00:16.426Z,7.17
2018-05-03T06:02:46.337Z,7.87
2018-05-03T06:05:16.456Z,7.73
2018-05-03T06:07:45.611Z,8.00
2018-05-03T06:10:14.819Z,6.73
2018-05-03T06:12:43.913Z,7.73
2018-05-03T06:15:13.112Z,7.67
2018-05-03T06:17:42.276Z,8.50
2018-05-03T06:20:12.376Z,8.87
2018-05-03T06:22:42.298Z,9.00
2018-05-03T06:25:11.475Z,8.37
2018-05-03T06:27:41.389Z,8.80
2018-05-03T06:30:11.311Z,8.53
2018-05-03T06:32:41.229Z,9.23
2018-05-03T06:35:11.149Z,8.80
2018-05-03T06:37:40.418Z,8.23
2018-05-03T06:40:09.601Z,7.83
2018-05-03T06:42:38.760Z,7.90
2018-05-03T06:45:07.920Z,8.30
2018-05-03T06:47:37.078Z,9.03
2018-05-03T06:50:06.288Z,8.70
2018-05-03T06:52:35.493Z,9.47
2018-05-03T06:55:05.686Z,8.30
2018-05-03T06:57:34.884Z,9.57
2018-05-03T07:00:04.064Z,8.50
2018-05-03T07:02:34.061Z,8.40
2018-05-03T07:05:04.003Z,8.60
2018-05-03T07:07:34.115Z,8.83
2018-05-03T07:10:03.322Z,8.60
2018-05-03T07:12:33.181Z,9.27
2018-05-03T07:15:02.364Z,8.77
2018-05-03T07:17:31.502Z,8.13
2018-05-03T07:20:01.424Z,8.77
2018-05-03T07:22:32.277Z,7.63
2018-05-03T07:25:02.170Z,8.50
2018-05-03T07:27:31.334Z,7.93
2018-05-03T07:30:00.475Z,8.13
2018-05-03T07:32:30.591Z,8.93
2018-05-03T07:34:59.722Z,9.10
2018-05-03T07:37:29.918Z,9.90
2018-05-03T07:39:59.092Z,9.07
2018-05-03T07:42:28.981Z,8.53
2018-05-03T07:44:58.416Z,8.70
2018-05-03T07:47:27.586Z,7.40
2018-05-03T07:49:56.728Z,9.97
2018-05-03T07:52:25.878Z,10.50
2018-05-03T07:54:55.657Z,8.97
2018-05-03T07:57:25.893Z,8.03
2018-05-03T07:59:55.065Z,8.73
2018-05-03T08:02:25.184Z,8.70
2018-05-03T08:04:54.344Z,8.43
2018-05-03T08:07:24.308Z,8.73
2018-05-03T08:09:53.459Z,7.60
2018-05-03T08:12:23.390Z,7.60
2018-05-03T08:14:53.437Z,9.10
2018-05-03T08:17:23.567Z,8.07
2018-05-03T08:19:53.477Z,8.60
2018-05-03T08:22:23.491Z,8.27
2018-05-03T08:24:53.371Z,8.03
2018-05-03T08:27:24.172Z,8.67
2018-05-03T08:29:53.527Z,9.97
2018-05-03T08:32:23.214Z,8.03
2018-05-03T08:34:52.392Z,10.63
2018-05-03T08:37:21.530Z,25.80
2018-05-03T08:39:50.713Z,8.63
2018-05-03T08:42:20.849Z,18.07
2018-05-03T08:44:50.029Z,9.43
2018-05-03T08:47:19.162Z,8.60
2018-05-03T08:49:48.321Z,8.27
2018-05-03T08:52:17.480Z,8.87
2018-05-03T08:54:47.257Z,9.50
2018-05-03T08:57:16.453Z,10.03
2018-05-03T08:59:45.614Z,9.60
2018-05-03T09:02:15.535Z,9.70
2018-05-03T09:04:45.446Z,10.40
2018-05-03T09:07:15.370Z,13.30
2018-05-03T09:09:44.532Z,10.73
2018-05-03T09:12:13.704Z,10.77
2018-05-03T09:14:42.899Z,9.37
2018-05-03T09:17:12.053Z,10.30
2018-05-03T09:19:41.978Z,10.03
2018-05-03T09:22:11.580Z,10.07
2018-05-03T09:24:40.727Z,8.37
2018-05-03T09:27:09.862Z,9.60
2018-05-03T09:29:40.734Z,10.60
2018-05-03T09:32:09.943Z,8.77
2018-05-03T09:34:39.126Z,10.17
2018-05-03T09:37:08.284Z,9.30
2018-05-03T09:39:38.234Z,8.47
2018-05-03T09:42:07.367Z,9.20
2018-05-03T09:44:36.717Z,9.53
2018-05-03T09:47:05.859Z,8.93
2018-05-03T09:49:35.803Z,10.40
2018-05-03T09:52:05.752Z,8.50
2018-05-03T09:54:35.970Z,8.40
2018-05-03T09:57:05.131Z,9.90
2018-05-03T09:59:34.288Z,11.03
2018-05-03T10:02:03.445Z,11.17
2018-05-03T10:04:34.404Z,10.07
2018-05-03T10:07:03.618Z,9.97
2018-05-03T10:09:32.763Z,9.30
2018-05-03T10:12:02.793Z,9.70
2018-05-03T10:14:32.693Z,8.97
2018-05-03T10:17:02.626Z,11.00
2018-05-03T10:19:32.734Z,11.23
2018-05-03T10:22:02.686Z,9.63
2018-05-03T10:24:31.827Z,9.63
2018-05-03T10:27:01.065Z,10.40
2018-05-03T10:29:30.201Z,9.07
2018-05-03T10:31:59.413Z,9.90
2018-05-03T10:34:28.585Z,10.10
2018-05-03T10:36:57.737Z,9.90
2018-05-03T10:39:27.891Z,8.77
2018-05-03T10:41:57.077Z,9.80
2018-05-03T10:44:27.933Z,8.90
2018-05-03T10:46:57.149Z,9.23
2018-05-03T10:49:26.310Z,10.63
2018-05-03T10:51:55.476Z,9.40
2018-05-03T10:54:25.385Z,8.83
2018-05-03T10:56:55.313Z,8.97
2018-05-03T10:59:25.453Z,9.77
2018-05-03T11:01:54.614Z,10.40
2018-05-03T11:04:24.749Z,11.30
2018-05-03T11:06:54.692Z,9.17
2018-05-03T11:09:24.666Z,9.47
2018-05-03T11:11:53.802Z,9.33
2018-05-03T11:14:22.985Z,10.00
2018-05-03T11:16:52.923Z,8.47
2018-05-03T11:19:22.049Z,8.70
2018-05-03T11:21:51.250Z,10.20
2018-05-03T11:24:20.389Z,9.53
2018-05-03T11:26:50.369Z,9.90
2018-05-03T11:29:19.598Z,9.33
2018-05-03T11:31:49.313Z,8.37
2018-05-03T11:34:19.277Z,9.10
2018-05-03T11:36:48.551Z,8.53
2018-05-03T11:39:17.653Z,8.63
2018-05-03T11:41:46.795Z,8.53
2018-05-03T11:44:15.986Z,9.63
2018-05-03T11:46:47.852Z,8.70
2018-05-03T11:49:17.016Z,7.97
2018-05-03T11:51:46.161Z,8.07
2018-05-03T11:54:15.339Z,8.60
2018-05-03T11:56:44.520Z,8.27
2018-05-03T11:59:13.694Z,9.17
2018-05-03T12:01:43.798Z,8.50
2018-05-03T12:04:12.981Z,9.30
2018-05-03T12:06:42.905Z,7.63
2018-05-03T12:09:12.123Z,7.43
2018-05-03T12:11:41.267Z,8.43
2018-05-03T12:14:10.376Z,8.67
2018-05-03T12:16:40.339Z,8.70
2018-05-03T12:19:09.509Z,8.53
2018-05-03T12:21:38.652Z,7.90
2018-05-03T12:24:07.833Z,7.90
2018-05-03T12:26:36.966Z,6.33
2018-05-03T12:29:06.895Z,7.97
2018-05-03T12:31:37.622Z,6.10
2018-05-03T12:34:07.604Z,6.80
2018-05-03T12:36:36.751Z,6.83
2018-05-03T12:39:06.715Z,6.03
2018-05-03T12:41:36.695Z,8.00
2018-05-03T12:44:06.706Z,7.47
2018-05-03T12:46:36.596Z,6.27
2018-05-03T12:49:05.746Z,6.23
2018-05-03T12:51:35.924Z,6.80
2018-05-03T12:54:05.088Z,5.57
2018-05-03T12:56:35.029Z,6.07
2018-05-03T12:59:04.191Z,6.33
2018-05-03T13:01:33.348Z,6.80
2018-05-03T13:04:03.274Z,7.27
2018-05-03T13:06:32.434Z,6.33
2018-05-03T13:09:01.575Z,5.10
2018-05-03T13:11:31.386Z,5.73
2018-05-03T13:14:00.604Z,4.70
2018-05-03T13:16:29.772Z,5.70
2018-05-03T13:18:58.908Z,5.60
2018-05-03T13:21:28.073Z,6.77
2018-05-03T13:23:57.227Z,5.80
2018-05-03T13:26:27.145Z,6.70
2018-05-03T13:28:57.108Z,6.00
2018-05-03T13:31:27.078Z,5.80
2018-05-03T13:33:57.002Z,6.30
2018-05-03T13:36:26.936Z,5.90
2018-05-03T13:38:56.930Z,6.90
2018-05-03T13:41:26.859Z,6.87
2018-05-03T13:43:56.024Z,5.73
2018-05-03T13:46:26.725Z,6.10
2018-05-03T13:48:56.044Z,5.90
2018-05-03T13:51:25.247Z,6.40
2018-05-03T13:53:54.354Z,6.43
2018-05-03T13:56:23.488Z,6.50
2018-05-03T13:58:52.661Z,6.37
2018-05-03T14:01:23.442Z,6.60
2018-05-03T14:03:52.670Z,6.20
2018-05-03T14:06:21.865Z,6.40
2018-05-03T14:08:51.015Z,5.90
2018-05-03T14:11:20.251Z,5.90
2018-05-03T14:13:51.103Z,5.30
2018-05-03T14:16:20.283Z,6.13
2018-05-03T14:18:52.163Z,6.10
2018-05-03T14:21:21.308Z,5.63
2018-05-03T14:23:51.151Z,8.83
2018-05-03T14:26:21.245Z,7.23
2018-05-03T14:28:50.419Z,6.23
2018-05-03T14:31:20.367Z,6.30
2018-05-03T14:33:49.530Z,6.40
2018-05-03T14:36:19.442Z,6.17
2018-05-03T14:38:48.605Z,5.80
2018-05-03T14:41:17.796Z,6.20
2018-05-03T14:43:47.901Z,6.30
2018-05-03T14:46:17.095Z,5.60
2018-05-03T14:48:47.033Z,6.00
2018-05-03T14:51:16.211Z,5.33
2018-05-03T14:53:45.378Z,6.27
2018-05-03T14:56:15.177Z,7.30
2018-05-03T14:58:45.141Z,6.43
2018-05-03T15:01:14.811Z,6.03
2018-05-03T15:03:44.964Z,6.87
2018-05-03T15:06:14.126Z,5.83
2018-05-03T15:08:44.034Z,5.77
2018-05-03T15:11:13.983Z,6.50
2018-05-03T15:13:44.115Z,6.30
2018-05-03T15:16:13.337Z,6.47
2018-05-03T15:18:43.249Z,5.93
2018-05-03T15:21:12.397Z,6.77
2018-05-03T15:23:41.576Z,7.83
2018-05-03T15:26:11.522Z,7.30
2018-05-03T15:28:40.699Z,6.13
2018-05-03T15:31:10.636Z,6.60
2018-05-03T15:33:40.114Z,6.83
2018-05-03T15:36:10.049Z,6.67
2018-05-03T15:38:39.245Z,5.77
2018-05-03T15:41:08.426Z,6.07
2018-05-03T15:43:38.362Z,6.20
2018-05-03T15:46:07.518Z,6.57
2018-05-03T15:48:38.116Z,6.00
2018-05-03T15:51:07.283Z,7.40
2018-05-03T15:53:36.427Z,6.47
2018-05-03T15:56:05.578Z,5.40
2018-05-03T15:58:34.731Z,5.80
2018-05-03T16:01:04.663Z,6.30
2018-05-03T16:03:33.849Z,6.37
2018-05-03T16:06:03.847Z,6.83
2018-05-03T16:08:33.019Z,5.70
2018-05-03T16:11:02.192Z,6.50
2018-05-03T16:13:32.351Z,6.13
2018-05-03T16:16:01.533Z,5.00
2018-05-03T16:18:31.651Z,5.50
2018-05-03T16:21:00.845Z,5.70
2018-05-03T16:23:30.781Z,5.57
2018-05-03T16:25:59.937Z,6.13
2018-05-03T16:28:29.140Z,5.93
2018-05-03T16:30:59.128Z,5.53
2018-05-03T16:33:28.336Z,6.60
2018-05-03T16:35:57.494Z,6.55
2018-05-03T16:38:26.690Z,5.60
2018-05-03T16:40:55.856Z,5.68
2018-05-03T16:43:25.062Z,5.50
2018-05-03T16:45:54.218Z,5.82
2018-05-03T16:48:23.404Z,5.60
2018-05-03T16:50:53.373Z,6.77
2018-05-03T16:53:22.562Z,5.43
2018-05-03T16:55:51.714Z,6.35
2018-05-03T16:58:21.668Z,4.97
2018-05-03T17:00:50.840Z,5.73
2018-05-03T17:03:20.058Z,5.90
2018-05-03T17:05:51.034Z,5.75
2018-05-03T17:08:21.218Z,5.17
2018-05-03T17:10:50.387Z,5.87
2018-05-03T17:13:20.389Z,5.17
2018-05-03T17:15:50.763Z,5.50
2018-05-03T17:18:19.924Z,5.50
2018-05-03T17:20:49.911Z,5.80
2018-05-03T17:23:19.045Z,6.40
2018-05-03T17:25:49.050Z,6.45
2018-05-03T17:28:18.984Z,5.87
2018-05-03T17:30:49.065Z,5.28
2018-05-03T17:33:18.221Z,6.13
2018-05-03T17:35:47.418Z,4.83
2018-05-03T17:38:17.386Z,5.70
2018-05-03T17:40:47.298Z,5.73
2018-05-03T17:43:17.396Z,5.67
2018-05-03T17:45:46.616Z,5.53
2018-05-03T17:48:15.817Z,5.80
2018-05-03T17:50:45.790Z,4.70
2018-05-03T17:53:14.968Z,5.13
2018-05-03T17:55:44.129Z,4.93
2018-05-03T17:58:13.338Z,5.40
2018-05-03T18:00:42.534Z,5.60
2018-05-03T18:03:11.829Z,4.90
2018-05-03T18:05:42.418Z,5.00
2018-05-03T18:08:11.634Z,5.30
2018-05-03T18:10:43.462Z,4.80
2018-05-03T18:13:12.797Z,5.10
2018-05-03T18:15:42.045Z,4.77
2018-05-03T18:18:11.199Z,4.70
2018-05-03T18:20:42.566Z,4.30
2018-05-03T18:23:11.860Z,5.33
2018-05-03T18:25:41.541Z,4.60
2018-05-03T18:28:11.247Z,4.57
2018-05-03T18:30:42.055Z,4.30
2018-05-03T18:33:11.252Z,4.23
2018-05-03T18:35:41.457Z,4.20
2018-05-03T18:38:10.642Z,3.93
2018-05-03T18:40:41.793Z,4.23
2018-05-03T18:43:10.996Z,4.07
2018-05-03T18:45:42.226Z,3.80
2018-05-03T18:48:12.237Z,4.40
2018-05-03T18:50:41.615Z,4.30
2018-05-03T18:53:11.545Z,3.90
2018-05-03T18:55:41.611Z,3.80
2018-05-03T18:58:10.759Z,3.57
2018-05-03T19:00:39.933Z,3.80
2018-05-03T19:03:09.869Z,4.17
2018-05-03T19:05:39.042Z,3.80
2018-05-03T19:08:08.999Z,4.23
2018-05-03T19:10:38.160Z,3.03
2018-05-03T19:13:07.404Z,4.03
2018-05-03T19:15:36.879Z,3.80
2018-05-03T19:18:06.862Z,3.83
2018-05-03T19:20:36.087Z,3.77
2018-05-03T19:23:07.970Z,3.83
2018-05-03T19:25:37.168Z,3.00
2018-05-03T19:28:07.351Z,4.00
2018-05-03T19:30:36.490Z,4.00
2018-05-03T19:33:05.632Z,4.00
2018-05-03T19:35:34.812Z,3.37
2018-05-03T19:38:04.002Z,3.20
2018-05-03T19:40:33.178Z,3.90
2018-05-03T19:43:03.173Z,3.10
2018-05-03T19:45:33.117Z,3.30
2018-05-03T19:48:02.286Z,3.30
2018-05-03T19:50:32.254Z,3.50
2018-05-03T19:53:01.424Z,3.70
2018-05-03T19:55:30.629Z,3.40
2018-05-03T19:57:59.828Z,3.62
2018-05-03T20:00:29.037Z,3.57
2018-05-03T20:02:58.201Z,3.97
2018-05-03T20:05:27.383Z,3.33
2018-05-03T20:07:57.354Z,3.42
2018-05-03T20:10:26.519Z,4.00
2018-05-03T20:12:55.667Z,3.37
2018-05-03T20:15:24.880Z,3.50
2018-05-03T20:17:54.048Z,3.73
2018-05-03T20:20:23.217Z,3.23
2018-05-03T20:22:52.394Z,2.97
2018-05-03T20:25:22.313Z,2.80
2018-05-03T20:27:51.483Z,3.13
2018-05-03T20:30:20.653Z,3.27
2018-05-03T20:32:49.840Z,3.05
2018-05-03T20:35:19.790Z,2.90
2018-05-03T20:37:50.499Z,3.28
2018-05-03T20:40:19.679Z,3.33
2018-05-03T20:42:48.841Z,3.00
2018-05-03T20:45:18.011Z,2.60
2018-05-03T20:47:47.185Z,3.25
2018-05-03T20:50:16.358Z,3.07
2018-05-03T20:52:45.589Z,3.17
2018-05-03T20:55:14.741Z,2.83
2018-05-03T20:57:44.834Z,3.23
2018-05-03T21:00:14.789Z,3.77
2018-05-03T21:02:45.740Z,3.20
2018-05-03T21:05:14.869Z,3.00
2018-05-03T21:07:44.035Z,3.33
2018-05-03T21:10:13.202Z,3.50
2018-05-03T21:12:42.487Z,3.00
2018-05-03T21:15:11.666Z,4.00
2018-05-03T21:17:40.831Z,3.50
2018-05-03T21:20:10.030Z,2.70
2018-05-03T21:22:39.195Z,3.43
2018-05-03T21:25:09.131Z,3.50
2018-05-03T21:27:38.302Z,3.33
2018-05-03T21:30:08.237Z,3.10
2018-05-03T21:32:37.406Z,2.87
2018-05-03T21:35:08.268Z,3.03
2018-05-03T21:37:38.199Z,2.77
2018-05-03T21:40:07.409Z,4.20
2018-05-03T21:42:37.310Z,2.80
2018-05-03T21:45:06.437Z,3.23
2018-05-03T21:47:35.599Z,3.12
2018-05-03T21:50:05.762Z,2.80
2018-05-03T21:52:35.681Z,3.50
2018-05-03T21:55:04.850Z,2.97
2018-05-03T21:57:34.006Z,3.10
2018-05-03T22:00:03.968Z,3.10
2018-05-03T22:02:34.033Z,2.70
2018-05-03T22:05:03.975Z,3.03
2018-05-03T22:07:33.133Z,3.67
2018-05-03T22:10:03.086Z,3.27
2018-05-03T22:12:32.252Z,3.40
2018-05-03T22:15:03.127Z,3.70
2018-05-03T22:17:32.354Z,3.20
2018-05-03T22:20:01.497Z,3.57
2018-05-03T22:22:31.399Z,3.20
2018-05-03T22:25:02.253Z,3.42
2018-05-03T22:27:32.168Z,3.77
2018-05-03T22:30:02.274Z,3.60
2018-05-03T22:32:31.427Z,3.27
2018-05-03T22:35:00.571Z,3.70
2018-05-03T22:37:29.770Z,3.43
2018-05-03T22:39:59.692Z,3.50
2018-05-03T22:42:29.617Z,4.57
2018-05-03T22:44:58.769Z,4.10
2018-05-03T22:47:27.895Z,4.00
2018-05-03T22:49:57.842Z,4.10
2018-05-03T22:52:27.014Z,4.00
2018-05-03T22:54:56.951Z,3.62
2018-05-03T22:57:26.090Z,3.83
2018-05-03T22:59:55.256Z,3.60
2018-05-03T23:02:24.401Z,4.03
2018-05-03T23:04:53.544Z,3.92
2018-05-03T23:07:23.481Z,3.43
2018-05-03T23:09:52.620Z,3.17
2018-05-03T23:12:23.509Z,3.60
2018-05-03T23:14:52.666Z,4.23
2018-05-03T23:17:22.582Z,3.87
2018-05-03T23:19:52.491Z,3.83
2018-05-03T23:22:22.408Z,3.87
2018-05-03T23:24:52.325Z,3.63
2018-05-03T23:27:22.239Z,4.30
2018-05-03T23:29:51.408Z,3.67
2018-05-03T23:32:21.047Z,4.90
2018-05-03T23:34:50.958Z,4.40
2018-05-03T23:37:20.872Z,3.93
2018-05-03T23:39:50.786Z,4.00
2018-05-03T23:42:21.638Z,3.97
2018-05-03T23:44:50.807Z,3.75
2018-05-03T23:47:19.985Z,3.60
2018-05-03T23:49:49.206Z,3.60
2018-05-03T23:52:18.378Z,3.20
2018-05-03T23:54:47.542Z,3.58
2018-05-03T23:57:17.603Z,3.63
2018-05-03T23:59:46.733Z,3.73
